Time;durP1;ratioP1;P1;durP2;ratioP2;P2;SDS_P1;SDS_P2;PMS_P1;PMS_P2;Temp;Humidity;BMP_temperature;BMP_pressure;BME280_temperature;BME280_humidity;BME280_pressure;Samples;Min_cycle;Max_cycle;Signal;HPM_P1;HPM_P2
2021/07/23 00:02:30;;;;;;;20.02;11.65;;;17.00;95.60;;;;;;6199507;28;20109;-75
2021/07/23 00:05:32;;;;;;;14.95;11.80;;;17.00;95.60;;;;;;6200386;28;20133;-77
2021/07/23 00:08:33;;;;;;;16.27;12.43;;;16.90;95.80;;;;;;6199389;28;20128;-77
2021/07/23 00:11:35;;;;;;;16.05;12.70;;;16.90;95.90;;;;;;6200367;28;20524;-77
2021/07/23 00:14:38;;;;;;;13.00;9.90;;;16.80;96.10;;;;;;6199877;28;20125;-77
2021/07/23 00:17:40;;;;;;;21.98;11.80;;;16.80;96.30;;;;;;6200825;28;20133;-77
2021/07/23 00:20:42;;;;;;;12.73;11.23;;;16.70;96.50;;;;;;6201028;28;20178;-77
2021/07/23 00:23:44;;;;;;;16.50;11.65;;;16.70;96.50;;;;;;6200898;28;20102;-76
2021/07/23 00:26:51;;;;;;;19.10;12.80;;;16.70;96.70;;;;;;6201427;28;20066;-77
2021/07/23 00:29:54;;;;;;;21.30;11.73;;;16.60;97.10;;;;;;6201481;28;20488;-76
2021/07/23 00:32:56;;;;;;;16.77;10.63;;;16.50;97.20;;;;;;6200275;28;20066;-77
2021/07/23 00:35:58;;;;;;;15.68;12.55;;;16.50;97.30;;;;;;6199140;28;20093;-76
2021/07/23 00:39:00;;;;;;;15.45;11.82;;;16.50;97.40;;;;;;6201058;28;20459;-76
2021/07/23 00:42:02;;;;;;;17.15;12.23;;;16.40;97.50;;;;;;6200485;28;20222;-76
2021/07/23 00:45:07;;;;;;;18.13;11.73;;;16.40;97.90;;;;;;6200579;28;20194;-75
2021/07/23 00:48:09;;;;;;;18.95;12.35;;;16.40;97.70;;;;;;6200378;28;20050;-77
2021/07/23 00:51:11;;;;;;;19.05;11.60;;;16.30;97.90;;;;;;6203693;28;20124;-77
2021/07/23 00:54:13;;;;;;;18.90;11.60;;;16.30;98.00;;;;;;6205370;28;20062;-78
2021/07/23 00:57:15;;;;;;;14.68;10.80;;;16.30;97.90;;;;;;6205625;28;20058;-77
2021/07/23 01:00:19;;;;;;;14.38;10.60;;;16.30;97.90;;;;;;6200498;28;20054;-76
2021/07/23 01:03:22;;;;;;;15.85;10.63;;;16.30;97.90;;;;;;6204931;28;20085;-77
2021/07/23 01:06:24;;;;;;;15.90;11.52;;;16.30;98.00;;;;;;6203846;28;20408;-76
2021/07/23 01:09:26;;;;;;;17.15;10.32;;;16.30;97.90;;;;;;6204250;28;20046;-76
2021/07/23 01:12:29;;;;;;;15.23;10.43;;;16.30;97.90;;;;;;6203535;28;20082;-76
2021/07/23 01:15:32;;;;;;;18.52;11.88;;;16.30;97.80;;;;;;6203938;28;20073;-76
2021/07/23 01:18:34;;;;;;;14.52;11.23;;;16.20;97.60;;;;;;6206162;28;20154;-76
2021/07/23 01:21:36;;;;;;;17.20;11.95;;;16.10;97.70;;;;;;6205394;28;20519;-77
2021/07/23 01:24:41;;;;;;;17.02;13.55;;;16.10;97.90;;;;;;6205376;28;20070;-77
2021/07/23 01:27:47;;;;;;;14.65;11.73;;;16.10;98.00;;;;;;6205499;28;20069;-77
2021/07/23 01:30:48;;;;;;;18.33;12.68;;;16.00;98.20;;;;;;6204576;28;20134;-77
2021/07/23 01:33:50;;;;;;;16.35;10.60;;;15.90;98.40;;;;;;6205439;28;20571;-77
2021/07/23 01:36:52;;;;;;;13.18;10.45;;;15.90;98.50;;;;;;6202483;28;20136;-75
2021/07/23 01:39:56;;;;;;;15.18;11.90;;;15.90;98.40;;;;;;6202444;28;20116;-76
2021/07/23 01:42:58;;;;;;;13.40;10.65;;;15.80;98.50;;;;;;6203293;28;20050;-77
2021/07/23 01:46:00;;;;;;;16.10;11.35;;;15.80;98.70;;;;;;6203907;28;20137;-76
2021/07/23 01:49:02;;;;;;;12.80;10.57;;;15.70;98.70;;;;;;6203088;28;20734;-77
2021/07/23 01:52:04;;;;;;;15.93;12.23;;;15.70;98.70;;;;;;6203674;28;20100;-77
2021/07/23 01:55:09;;;;;;;16.50;10.48;;;15.70;98.80;;;;;;6203912;28;20042;-76
2021/07/23 01:58:11;;;;;;;11.68;10.00;;;15.60;98.70;;;;;;6203299;28;20061;-77
2021/07/23 02:01:13;;;;;;;15.82;11.05;;;15.60;98.70;;;;;;6228433;28;20046;-75
2021/07/23 02:04:14;;;;;;;17.38;11.70;;;15.50;98.90;;;;;;6228935;28;20415;-77
2021/07/23 02:07:16;;;;;;;13.25;10.93;;;15.50;99.20;;;;;;6227832;28;20056;-77
2021/07/23 02:10:19;;;;;;;15.10;11.98;;;15.50;99.30;;;;;;6228853;28;20053;-78
2021/07/23 02:13:21;;;;;;;15.65;10.45;;;15.50;99.30;;;;;;6229168;28;20132;-76
2021/07/23 02:16:23;;;;;;;18.65;14.30;;;15.50;99.50;;;;;;6228212;28;20539;-77
2021/07/23 02:19:25;;;;;;;15.18;10.70;;;15.50;99.60;;;;;;6227430;28;20097;-77
2021/07/23 02:22:27;;;;;;;14.93;12.02;;;15.50;99.90;;;;;;6228240;28;20133;-77
2021/07/23 02:25:30;;;;;;;15.57;11.57;;;15.50;99.90;;;;;;6268434;22;20139;-77
2021/07/23 02:28:32;;;;;;;18.50;12.38;;;15.50;99.90;;;;;;6249115;28;20190;-76
2021/07/23 02:31:33;;;;;;;16.42;12.30;;;15.50;99.90;;;;;;6249282;28;20056;-77
2021/07/23 02:34:35;;;;;;;14.52;10.93;;;15.50;99.90;;;;;;6249416;28;20578;-77
2021/07/23 02:37:38;;;;;;;19.48;11.75;;;15.50;99.90;;;;;;6248520;28;20457;-77
2021/07/23 02:40:41;;;;;;;18.05;11.77;;;15.50;99.90;;;;;;6224670;28;20050;-77
2021/07/23 02:43:47;;;;;;;17.27;11.90;;;15.50;99.90;;;;;;6224509;28;20050;-77
2021/07/23 02:46:49;;;;;;;15.40;11.95;;;15.40;99.90;;;;;;6224295;28;20045;-77
2021/07/23 02:49:51;;;;;;;20.33;11.63;;;15.40;99.90;;;;;;6224687;28;20076;-77
2021/07/23 02:52:53;;;;;;;13.52;10.88;;;15.40;99.90;;;;;;6224125;28;20092;-77
2021/07/23 02:55:59;;;;;;;18.98;13.65;;;15.40;99.90;;;;;;6224044;28;20144;-76
2021/07/23 02:59:01;;;;;;;15.13;12.13;;;15.50;99.90;;;;;;6224311;28;20139;-77
2021/07/23 03:02:03;;;;;;;15.35;12.43;;;15.50;99.90;;;;;;6224609;28;20177;-77
2021/07/23 03:05:05;;;;;;;16.20;11.48;;;15.40;99.90;;;;;;6223857;28;20092;-77
2021/07/23 03:08:09;;;;;;;14.70;11.23;;;15.40;99.90;;;;;;6223928;28;20076;-77
2021/07/23 03:11:12;;;;;;;17.45;12.18;;;15.50;99.90;;;;;;6223688;28;20073;-78
2021/07/23 03:14:14;;;;;;;16.42;11.50;;;15.40;99.90;;;;;;6222657;28;20499;-77
2021/07/23 03:17:16;;;;;;;14.18;11.32;;;15.40;99.90;;;;;;6223817;28;20052;-77
2021/07/23 03:20:18;;;;;;;15.75;11.88;;;15.40;99.90;;;;;;6223555;28;20125;-77
2021/07/23 03:23:20;;;;;;;15.23;10.85;;;15.40;99.90;;;;;;6223559;28;20053;-77
2021/07/23 03:26:23;;;;;;;32.67;12.10;;;15.40;99.90;;;;;;6223814;28;20482;-77
2021/07/23 03:29:25;;;;;;;15.60;12.40;;;15.40;99.90;;;;;;6224140;28;20054;-78
2021/07/23 03:32:27;;;;;;;18.15;12.52;;;15.40;99.90;;;;;;6223899;28;20173;-77
2021/07/23 03:35:29;;;;;;;16.05;11.98;;;15.40;99.90;;;;;;6223446;28;20518;-77
2021/07/23 03:38:31;;;;;;;16.58;12.05;;;15.40;99.90;;;;;;6235176;28;20144;-77
2021/07/23 03:41:34;;;;;;;17.65;12.48;;;15.30;99.90;;;;;;6248481;28;20105;-77
2021/07/23 03:44:36;;;;;;;18.05;12.23;;;15.30;99.90;;;;;;6247619;28;20527;-77
2021/07/23 03:47:37;;;;;;;13.93;11.80;;;15.30;99.90;;;;;;6247072;28;20140;-77
2021/07/23 03:50:39;;;;;;;12.90;10.55;;;15.30;99.90;;;;;;6247798;28;20577;-77
2021/07/23 03:53:41;;;;;;;17.60;11.60;;;15.50;99.90;;;;;;6247941;28;20056;-77
2021/07/23 03:56:44;;;;;;;11.70;9.73;;;15.60;99.90;;;;;;6247194;28;20048;-77
2021/07/23 03:59:46;;;;;;;15.00;9.90;;;15.70;99.90;;;;;;6247392;28;20084;-77
2021/07/23 04:02:49;;;;;;;16.27;10.85;;;15.80;99.90;;;;;;6246562;28;20418;-77
2021/07/23 04:05:51;;;;;;;13.65;10.13;;;15.80;99.50;;;;;;6247470;28;20049;-77
2021/07/23 04:08:54;;;;;;;13.10;9.50;;;15.90;98.90;;;;;;6247200;28;20057;-77
2021/07/23 04:11:58;;;;;;;12.57;9.57;;;16.00;98.40;;;;;;6247414;28;20060;-77
2021/07/23 04:15:01;;;;;;;14.02;9.45;;;16.10;97.90;;;;;;6247193;28;20485;-77
2021/07/23 04:18:03;;;;;;;13.40;8.82;;;16.30;97.20;;;;;;6247299;28;20049;-77
2021/07/23 04:21:05;;;;;;;14.77;9.38;;;16.20;96.70;;;;;;6247016;28;20056;-77
2021/07/23 04:24:07;;;;;;;17.13;10.73;;;16.20;96.30;;;;;;6247070;28;20045;-78
2021/07/23 04:27:10;;;;;;;12.02;9.45;;;16.30;96.30;;;;;;6246856;28;20087;-77
2021/07/23 04:30:13;;;;;;;16.33;10.85;;;16.40;95.90;;;;;;6246654;28;20535;-77
2021/07/23 04:33:15;;;;;;;14.32;11.07;;;16.50;95.90;;;;;;6247048;28;20045;-77
2021/07/23 04:36:17;;;;;;;14.45;9.57;;;16.60;95.40;;;;;;6246475;28;20049;-77
2021/07/23 04:39:19;;;;;;;13.55;8.63;;;16.60;95.30;;;;;;6246063;28;20103;-77
2021/07/23 04:42:22;;;;;;;11.85;9.00;;;16.70;95.00;;;;;;6246824;28;20228;-77
2021/07/23 04:45:24;;;;;;;33.80;13.55;;;16.90;94.50;;;;;;6247212;28;20136;-78
2021/07/23 04:48:25;;;;;;;14.98;10.90;;;17.00;94.00;;;;;;6246351;28;20171;-77
2021/07/23 04:51:28;;;;;;;21.77;10.73;;;17.00;93.80;;;;;;6246436;28;20123;-77
2021/07/23 04:54:30;;;;;;;13.15;9.27;;;17.10;93.70;;;;;;6246783;28;20201;-78
2021/07/23 04:57:41;;;;;;;11.45;9.52;;;17.30;94.30;;;;;;6246961;28;20535;-78
2021/07/23 05:00:44;;;;;;;16.08;9.15;;;17.40;94.20;;;;;;6246513;28;20056;-78
2021/07/23 05:03:47;;;;;;;14.20;9.88;;;17.30;94.00;;;;;;6246697;28;20041;-77
2021/07/23 05:06:49;;;;;;;12.73;8.95;;;17.40;93.90;;;;;;6246127;28;20068;-77
2021/07/23 05:09:51;;;;;;;17.90;11.10;;;17.50;93.50;;;;;;6247880;28;20143;-76
2021/07/23 05:12:54;;;;;;;18.58;11.13;;;17.60;93.20;;;;;;6246567;28;20136;-77
2021/07/23 05:15:57;;;;;;;13.00;9.73;;;17.70;93.20;;;;;;6245861;28;20048;-77
2021/07/23 05:18:59;;;;;;;12.73;8.82;;;17.90;93.10;;;;;;6246062;28;20128;-77
2021/07/23 05:22:01;;;;;;;13.48;9.75;;;18.40;92.40;;;;;;6246586;28;20553;-77
2021/07/23 05:25:03;;;;;;;10.50;7.70;;;18.90;90.90;;;;;;6245723;28;20121;-77
2021/07/23 05:28:06;;;;;;;11.70;9.35;;;19.10;90.10;;;;;;6245743;28;20049;-77
2021/07/23 05:31:08;;;;;;;10.07;8.70;;;19.20;89.90;;;;;;6246170;28;20127;-78
2021/07/23 05:34:10;;;;;;;11.25;8.73;;;19.30;89.60;;;;;;6246276;28;20514;-77
2021/07/23 05:37:11;;;;;;;14.98;8.20;;;19.40;89.00;;;;;;6247290;28;20511;-77
2021/07/23 05:40:16;;;;;;;13.65;8.77;;;19.50;88.30;;;;;;6249785;28;20084;-77
2021/07/23 05:43:19;;;;;;;9.70;7.78;;;19.70;88.10;;;;;;6250060;28;20073;-77
2021/07/23 05:46:21;;;;;;;11.57;8.02;;;19.90;87.90;;;;;;6249946;28;20041;-77
2021/07/23 05:49:23;;;;;;;17.92;10.70;;;20.10;87.90;;;;;;6250439;28;20457;-78
2021/07/23 05:52:24;;;;;;;13.57;8.98;;;20.30;87.30;;;;;;6250196;28;20423;-77
2021/07/23 05:55:27;;;;;;;15.80;10.02;;;20.50;86.00;;;;;;6250277;28;20045;-77
2021/07/23 05:58:31;;;;;;;17.45;10.98;;;20.70;83.80;;;;;;6250077;28;20107;-77
2021/07/23 06:01:33;;;;;;;16.05;9.70;;;21.00;81.40;;;;;;6250413;28;20140;-77
2021/07/23 06:04:35;;;;;;;12.60;9.13;;;21.20;80.00;;;;;;6240010;28;20183;-77
2021/07/23 06:07:38;;;;;;;16.85;10.88;;;21.40;79.00;;;;;;6249451;28;20133;-77
2021/07/23 06:10:40;;;;;;;12.27;9.32;;;21.60;78.40;;;;;;6249452;28;20414;-77
2021/07/23 06:13:43;;;;;;;14.23;8.43;;;21.80;76.20;;;;;;6250319;28;20087;-77
2021/07/23 06:16:45;;;;;;;16.15;9.63;;;21.90;74.60;;;;;;6249604;28;20570;-77
2021/07/23 06:19:47;;;;;;;24.17;10.15;;;22.10;74.50;;;;;;6249499;28;20053;-78
2021/07/23 06:22:49;;;;;;;12.73;8.90;;;22.30;73.70;;;;;;6249342;28;20049;-77
2021/07/23 06:25:51;;;;;;;13.13;7.97;;;22.40;73.30;;;;;;6248943;28;20053;-77
2021/07/23 06:28:54;;;;;;;11.95;9.70;;;22.60;72.90;;;;;;6249075;28;20047;-78
2021/07/23 06:31:58;;;;;;;17.95;9.50;;;22.80;71.80;;;;;;6249058;28;20514;-77
2021/07/23 06:35:00;;;;;;;12.80;8.55;;;23.00;71.00;;;;;;6249114;28;20060;-78
2021/07/23 06:38:02;;;;;;;13.07;9.57;;;23.20;70.00;;;;;;6249707;28;20049;-78
2021/07/23 06:41:06;;;;;;;11.18;7.85;;;23.50;68.90;;;;;;6248510;28;20060;-78
2021/07/23 06:44:09;;;;;;;15.15;8.57;;;23.70;68.60;;;;;;6243025;28;20395;-77
2021/07/23 06:47:11;;;;;;;13.80;7.47;;;24.00;67.00;;;;;;6248647;28;20123;-77
2021/07/23 06:50:13;;;;;;;9.35;6.63;;;24.20;65.50;;;;;;6249352;28;20068;-77
2021/07/23 06:53:15;;;;;;;9.07;6.40;;;24.40;63.20;;;;;;6249754;28;20049;-77
2021/07/23 06:56:17;;;;;;;15.48;8.82;;;24.60;61.40;;;;;;6248681;28;20175;-78
2021/07/23 06:59:20;;;;;;;12.63;7.13;;;24.70;60.40;;;;;;6248838;28;20084;-77
2021/07/23 07:02:22;;;;;;;7.50;6.47;;;24.80;60.10;;;;;;6248834;28;20175;-78
2021/07/23 07:05:24;;;;;;;10.52;7.10;;;24.90;59.60;;;;;;6248857;28;20196;-77
2021/07/23 07:08:26;;;;;;;9.73;7.57;;;25.00;58.40;;;;;;6248173;28;20056;-77
2021/07/23 07:11:28;;;;;;;10.15;6.55;;;25.00;57.50;;;;;;6224093;28;20053;-79
2021/07/23 07:14:31;;;;;;;11.88;7.10;;;25.00;57.30;;;;;;6248385;28;20092;-75
2021/07/23 07:17:33;;;;;;;12.90;6.40;;;25.00;57.10;;;;;;6247991;28;20407;-75
2021/07/23 07:20:35;;;;;;;7.70;6.78;;;25.10;56.60;;;;;;6247928;28;20093;-76
2021/07/23 07:23:37;;;;;;;9.85;6.68;;;25.20;55.70;;;;;;6247780;28;20095;-76
2021/07/23 07:26:38;;;;;;;8.60;6.50;;;25.30;55.80;;;;;;6247637;28;20132;-76
2021/07/23 07:29:41;;;;;;;9.90;7.55;;;25.20;55.10;;;;;;6248360;28;20088;-76
2021/07/23 07:32:43;;;;;;;8.90;6.13;;;25.10;55.90;;;;;;6247633;28;20045;-77
2021/07/23 07:35:45;;;;;;;10.23;7.15;;;25.10;56.00;;;;;;6247076;28;20060;-77
2021/07/23 07:38:48;;;;;;;7.50;6.47;;;25.20;56.00;;;;;;6248166;28;20045;-77
2021/07/23 07:41:50;;;;;;;17.02;6.78;;;25.30;57.20;;;;;;6247148;28;20050;-76
2021/07/23 07:44:53;;;;;;;13.05;8.20;;;25.30;55.40;;;;;;6246586;28;20127;-76
2021/07/23 07:47:55;;;;;;;13.27;7.20;;;25.30;55.90;;;;;;6246875;28;20407;-76
2021/07/23 07:50:56;;;;;;;11.13;5.90;;;25.40;55.80;;;;;;6247746;28;20045;-77
2021/07/23 07:53:58;;;;;;;8.98;6.18;;;25.50;55.00;;;;;;6247729;28;20088;-75
2021/07/23 07:57:06;;;;;;;11.70;7.78;;;25.50;55.30;;;;;;6247892;28;20049;-76
2021/07/23 08:00:11;;;;;;;8.60;6.93;;;25.60;55.20;;;;;;6247792;28;20064;-77
2021/07/23 08:03:13;;;;;;;10.07;6.13;;;25.60;55.40;;;;;;6247176;28;20570;-77
2021/07/23 08:06:22;;;;;;;9.95;6.50;;;25.70;55.60;;;;;;6247301;28;20136;-78
2021/07/23 08:09:24;;;;;;;9.25;6.78;;;25.60;55.40;;;;;;6247517;28;20057;-77
2021/07/23 08:12:26;;;;;;;9.15;6.57;;;25.90;55.90;;;;;;6247495;28;20559;-76
2021/07/23 08:15:29;;;;;;;14.93;6.75;;;26.10;55.30;;;;;;6246786;28;20536;-76
2021/07/23 08:18:31;;;;;;;11.13;7.38;;;26.20;54.90;;;;;;6247455;28;20083;-77
2021/07/23 08:21:35;;;;;;;8.82;6.85;;;26.40;54.40;;;;;;6248117;28;20091;-76
2021/07/23 08:24:38;;;;;;;12.75;8.80;;;26.40;53.80;;;;;;6246696;28;20050;-75
2021/07/23 08:27:40;;;;;;;8.32;6.20;;;26.40;54.10;;;;;;6246561;28;20400;-75
2021/07/23 08:30:43;;;;;;;10.50;7.03;;;26.60;54.50;;;;;;6246448;28;20080;-75
2021/07/23 08:33:45;;;;;;;7.88;6.50;;;26.90;54.20;;;;;;6247400;28;20053;-75
2021/07/23 08:36:47;;;;;;;10.20;7.13;;;27.00;53.40;;;;;;6246293;28;20088;-75
2021/07/23 08:39:49;;;;;;;10.85;6.85;;;27.20;53.10;;;;;;6246630;28;20192;-75
2021/07/23 08:42:51;;;;;;;11.65;6.80;;;27.30;51.90;;;;;;6242997;28;20132;-75
2021/07/23 08:45:54;;;;;;;8.80;6.50;;;27.20;51.50;;;;;;6243363;28;20180;-76
2021/07/23 08:48:56;;;;;;;14.77;8.68;;;27.40;51.90;;;;;;6245724;28;20493;-76
2021/07/23 08:51:58;;;;;;;8.98;6.88;;;27.50;51.80;;;;;;6246371;28;20045;-75
2021/07/23 08:54:59;;;;;;;9.05;6.88;;;27.60;51.80;;;;;;6246135;28;20073;-75
2021/07/23 08:58:01;;;;;;;9.18;7.60;;;27.90;51.60;;;;;;6246356;28;20050;-75
2021/07/23 09:01:06;;;;;;;8.15;6.97;;;28.00;50.90;;;;;;6246043;28;20143;-75
2021/07/23 09:04:27;;;;;;;11.50;6.93;;;28.10;50.10;;;;;;6246234;28;20128;-74
2021/07/23 09:07:30;;;;;;;10.63;6.50;;;28.00;49.30;;;;;;6246017;28;20458;-75
2021/07/23 09:10:32;;;;;;;9.40;7.00;;;28.10;50.80;;;;;;6245959;28;20041;-75
2021/07/23 09:13:34;;;;;;;8.18;7.15;;;28.20;50.70;;;;;;6249800;28;20146;-75
2021/07/23 09:16:37;;;;;;;8.55;6.50;;;28.30;51.20;;;;;;6250641;28;20095;-75
2021/07/23 09:19:39;;;;;;;12.20;7.70;;;28.30;49.00;;;;;;6250702;28;20520;-74
2021/07/23 09:22:45;;;;;;;9.60;7.45;;;28.00;48.40;;;;;;6251241;28;20046;-75
2021/07/23 09:25:47;;;;;;;12.13;7.18;;;27.80;49.30;;;;;;6250654;28;20054;-74
2021/07/23 09:28:50;;;;;;;8.55;5.35;;;27.60;49.90;;;;;;6251146;28;20057;-75
2021/07/23 09:32:09;;;;;;;7.80;6.13;;;27.50;49.50;;;;;;6251158;28;20061;-75
2021/07/23 09:35:13;;;;;;;9.75;7.22;;;27.50;49.00;;;;;;6251069;28;20067;-75
2021/07/23 09:38:15;;;;;;;10.18;6.18;;;27.60;49.40;;;;;;6251718;28;20127;-75
2021/07/23 09:41:26;;;;;;;7.65;6.07;;;27.70;50.80;;;;;;6252503;28;20053;-75
2021/07/23 09:44:29;;;;;;;10.90;5.80;;;27.80;49.20;;;;;;6248524;28;20120;-75
2021/07/23 09:47:32;;;;;;;9.98;7.00;;;28.00;49.60;;;;;;6251130;28;20499;-75
2021/07/23 09:50:37;;;;;;;7.22;5.65;;;28.10;49.20;;;;;;6251617;28;20502;-75
2021/07/23 09:53:39;;;;;;;10.10;6.20;;;28.30;48.30;;;;;;6251307;28;20049;-75
2021/07/23 09:56:42;;;;;;;8.65;6.75;;;28.60;48.30;;;;;;6251380;28;20657;-76
2021/07/23 09:59:50;;;;;;;7.95;6.00;;;28.90;46.80;;;;;;6249958;28;20059;-76
2021/07/23 10:02:55;;;;;;;;;;;28.90;47.50;;;;;;6250406;28;20179;-76
2021/07/23 10:06:02;;;;;;;8.20;6.07;;;29.20;46.80;;;;;;6249661;28;20642;-75
2021/07/23 10:09:10;;;;;;;11.73;6.80;;;29.20;46.30;;;;;;6248679;28;20041;-77
2021/07/23 10:12:15;;;;;;;11.05;6.20;;;29.30;46.90;;;;;;6249683;28;20106;-75
2021/07/23 10:15:19;;;;;;;7.05;5.53;;;29.40;46.00;;;;;;6249052;28;20045;-76
2021/07/23 10:18:23;;;;;;;7.45;6.47;;;29.50;46.70;;;;;;6249089;28;20483;-76
2021/07/23 10:21:25;;;;;;;12.30;6.97;;;29.70;45.00;;;;;;6249801;28;20178;-76
2021/07/23 10:24:31;;;;;;;10.00;6.57;;;29.70;45.60;;;;;;6248528;28;20511;-76
2021/07/23 10:27:33;;;;;;;8.35;5.50;;;29.80;45.50;;;;;;6248791;28;20045;-76
2021/07/23 10:30:36;;;;;;;10.50;7.32;;;30.00;45.30;;;;;;6249099;28;20527;-76
2021/07/23 10:33:52;;;;;;;7.25;6.30;;;30.00;43.90;;;;;;6249686;28;20523;-75
2021/07/23 10:36:54;;;;;;;9.80;5.97;;;29.80;44.00;;;;;;6248757;28;20055;-76
2021/07/23 10:40:13;;;;;;;11.80;5.88;;;29.80;44.20;;;;;;6249202;28;20073;-76
2021/07/23 10:43:37;;;;;;;8.10;6.65;;;29.80;44.70;;;;;;6248666;28;20511;-75
2021/07/23 10:46:56;;;;;;;11.32;6.15;;;30.00;44.30;;;;;;6239017;28;20084;-75
2021/07/23 10:49:59;;;;;;;8.70;6.50;;;30.10;44.20;;;;;;6249440;28;20045;-76
2021/07/23 10:53:35;;;;;;;12.10;6.65;;;30.20;43.50;;;;;;6248766;28;20123;-75
2021/07/23 10:57:14;;;;;;;10.48;5.93;;;30.20;43.70;;;;;;6248336;28;20124;-75
2021/07/23 11:00:46;;;;;;;11.70;6.38;;;30.60;44.00;;;;;;6248012;28;20510;-76
2021/07/23 11:04:01;;;;;;;8.07;6.70;;;31.00;42.50;;;;;;6247875;28;20120;-75
2021/07/23 11:07:05;;;;;;;11.02;6.43;;;30.90;43.40;;;;;;6247980;28;20095;-76
2021/07/23 11:10:11;;;;;;;10.20;7.47;;;30.90;43.20;;;;;;6248197;28;20138;-75
2021/07/23 11:13:12;;;;;;;10.02;7.15;;;31.20;43.10;;;;;;6247952;28;20056;-76
2021/07/23 11:16:16;;;;;;;8.35;7.28;;;31.30;42.00;;;;;;6247381;28;20045;-76
2021/07/23 11:19:22;;;;;;;12.98;6.95;;;31.60;43.20;;;;;;6247803;28;20073;-76
2021/07/23 11:22:27;;;;;;;8.80;7.30;;;31.70;41.50;;;;;;6248054;28;20495;-76
2021/07/23 11:25:30;;;;;;;8.10;7.20;;;31.70;41.30;;;;;;6247368;28;20789;-75
2021/07/23 11:28:32;;;;;;;6.45;5.72;;;31.70;40.90;;;;;;6247287;28;20041;-74
2021/07/23 11:31:40;;;;;;;8.63;7.35;;;31.50;40.20;;;;;;6247399;28;20080;-74
2021/07/23 11:34:44;;;;;;;10.98;7.13;;;31.50;40.50;;;;;;6246679;28;20179;-75
2021/07/23 11:37:48;;;;;;;11.57;7.15;;;31.50;40.50;;;;;;6247471;28;20119;-75
2021/07/23 11:41:05;;;;;;;9.43;6.50;;;31.70;41.40;;;;;;6247432;28;20041;-75
2021/07/23 11:44:09;;;;;;;8.80;7.18;;;31.70;39.80;;;;;;6247676;28;20042;-75
2021/07/23 11:47:11;;;;;;;7.53;6.78;;;31.70;40.80;;;;;;6239716;28;20200;-76
2021/07/23 11:50:14;;;;;;;10.75;6.72;;;31.80;40.10;;;;;;6247092;28;20090;-75
2021/07/23 11:53:18;;;;;;;8.45;7.38;;;31.90;40.80;;;;;;6247292;28;20408;-76
2021/07/23 11:56:28;;;;;;;12.35;6.82;;;32.10;40.50;;;;;;6246545;28;20505;-76
2021/07/23 11:59:37;;;;;;;7.25;6.47;;;32.40;40.50;;;;;;6247233;28;20046;-76
2021/07/23 12:02:39;;;;;;;17.00;6.63;;;32.20;40.10;;;;;;6247357;28;20129;-76
2021/07/23 12:05:41;;;;;;;7.40;6.70;;;32.30;40.20;;;;;;6246795;28;20503;-77
2021/07/23 12:08:50;;;;;;;8.25;6.68;;;32.40;40.10;;;;;;6246315;28;20404;-75
2021/07/23 12:11:52;;;;;;;12.00;6.50;;;32.20;39.50;;;;;;6246651;28;20529;-76
2021/07/23 12:14:54;;;;;;;12.57;8.45;;;32.10;40.50;;;;;;6245980;28;20107;-76
2021/07/23 12:17:56;;;;;;;7.22;6.40;;;32.00;41.10;;;;;;6246993;28;20092;-77
2021/07/23 12:21:09;;;;;;;10.00;7.18;;;32.20;41.20;;;;;;6246187;28;20132;-77
2021/07/23 12:24:12;;;;;;;9.25;6.57;;;32.30;40.10;;;;;;6246345;28;20172;-77
2021/07/23 12:27:16;;;;;;;9.27;6.93;;;32.20;40.40;;;;;;6245905;28;20175;-76
2021/07/23 12:30:33;;;;;;;9.88;7.13;;;32.20;40.80;;;;;;6246315;28;20061;-76
2021/07/23 12:33:35;;;;;;;9.40;8.43;;;32.10;41.00;;;;;;6246765;28;20183;-76
2021/07/23 12:36:46;;;;;;;9.82;7.53;;;32.30;40.50;;;;;;6245484;28;20060;-76
2021/07/23 12:39:56;;;;;;;11.18;6.90;;;32.40;40.40;;;;;;6246288;28;20127;-76
2021/07/23 12:43:11;;;;;;;10.98;7.72;;;32.40;40.90;;;;;;6245860;28;20050;-76
2021/07/23 12:46:31;;;;;;;9.90;8.27;;;32.30;40.20;;;;;;6237357;28;20517;-76
2021/07/23 12:49:40;;;;;;;8.80;7.90;;;32.20;40.50;;;;;;6239187;28;20041;-76
2021/07/23 12:52:50;;;;;;;9.82;6.10;;;32.40;40.40;;;;;;6226224;28;20120;-75
2021/07/23 12:55:57;;;;;;;15.15;7.57;;;32.70;40.60;;;;;;6226084;28;20069;-76
2021/07/23 12:58:59;;;;;;;7.45;6.47;;;32.80;40.20;;;;;;6226142;28;20050;-75
2021/07/23 13:02:01;;;;;;;13.00;7.47;;;32.90;40.20;;;;;;6226580;28;20566;-75
2021/07/23 13:05:03;;;;;;;10.00;7.35;;;32.70;39.80;;;;;;6226016;28;20052;-75
2021/07/23 13:08:07;;;;;;;9.55;7.15;;;32.70;40.60;;;;;;6225917;28;20042;-75
2021/07/23 13:11:10;;;;;;;8.13;7.32;;;32.80;40.60;;;;;;6226122;28;20128;-76
2021/07/23 13:14:12;;;;;;;8.70;7.80;;;32.60;40.80;;;;;;6226228;28;20053;-75
2021/07/23 13:17:14;;;;;;;7.43;6.63;;;32.80;40.70;;;;;;6226401;28;20049;-75
2021/07/23 13:20:16;;;;;;;11.05;7.70;;;33.00;39.70;;;;;;6226063;28;20073;-76
2021/07/23 13:23:18;;;;;;;7.88;7.07;;;33.20;39.80;;;;;;6226102;28;20095;-76
2021/07/23 13:26:21;;;;;;;8.55;6.80;;;33.10;39.10;;;;;;6225818;28;20503;-75
2021/07/23 13:29:23;;;;;;;7.97;6.68;;;33.20;40.00;;;;;;6226401;28;20052;-76
2021/07/23 13:32:25;;;;;;;8.88;6.93;;;33.50;39.80;;;;;;6225803;28;20061;-75
2021/07/23 13:35:26;;;;;;;9.65;7.38;;;33.70;39.80;;;;;;6225825;28;20119;-75
2021/07/23 13:38:33;;;;;;;9.93;8.90;;;33.90;39.20;;;;;;6225982;28;20096;-75
2021/07/23 13:41:37;;;;;;;8.93;6.10;;;34.00;39.30;;;;;;6226246;28;20228;-75
2021/07/23 13:44:39;;;;;;;12.00;7.40;;;34.10;38.90;;;;;;6225687;28;20127;-75
2021/07/23 13:47:42;;;;;;;8.45;7.22;;;34.10;38.50;;;;;;6229709;28;20184;-76
2021/07/23 13:50:44;;;;;;;8.52;7.65;;;33.90;39.00;;;;;;6246678;28;20049;-76
2021/07/23 13:53:46;;;;;;;11.60;7.28;;;33.90;39.30;;;;;;6250157;28;20135;-75
2021/07/23 13:56:49;;;;;;;8.70;7.13;;;33.80;39.80;;;;;;6249299;28;20052;-75
2021/07/23 13:59:51;;;;;;;7.95;7.07;;;33.90;39.20;;;;;;6249159;28;20117;-75
2021/07/23 14:02:53;;;;;;;11.90;7.97;;;34.10;39.40;;;;;;6249405;28;20052;-75
2021/07/23 14:05:54;;;;;;;9.30;7.85;;;33.90;38.50;;;;;;6249554;28;20045;-75
2021/07/23 14:08:58;;;;;;;10.80;8.00;;;33.70;39.80;;;;;;6249302;28;20047;-75
2021/07/23 14:12:01;;;;;;;11.25;7.28;;;33.40;39.60;;;;;;6249571;28;20041;-76
2021/07/23 14:15:05;;;;;;;11.43;8.75;;;33.30;40.10;;;;;;6249118;28;20515;-75
2021/07/23 14:18:07;;;;;;;10.27;7.18;;;33.20;39.70;;;;;;6249597;28;20128;-75
2021/07/23 14:21:09;;;;;;;7.47;6.78;;;33.20;39.40;;;;;;6249405;28;20052;-76
2021/07/23 14:24:11;;;;;;;9.25;7.38;;;33.40;39.90;;;;;;6249064;28;20053;-76
2021/07/23 14:27:14;;;;;;;14.45;8.05;;;33.70;39.80;;;;;;6273023;22;20115;-77
2021/07/23 14:30:16;;;;;;;8.55;7.20;;;34.00;38.60;;;;;;6251374;28;20077;-77
2021/07/23 14:33:18;;;;;;;11.02;7.65;;;34.10;39.10;;;;;;6252879;28;20446;-77
2021/07/23 14:36:20;;;;;;;7.53;6.15;;;34.10;39.30;;;;;;6250621;28;20060;-77
2021/07/23 14:39:22;;;;;;;7.88;7.07;;;34.10;38.70;;;;;;6250346;28;20096;-77
2021/07/23 14:42:25;;;;;;;8.32;7.38;;;34.00;39.00;;;;;;6250411;28;20132;-76
2021/07/23 14:45:27;;;;;;;9.55;7.43;;;33.70;39.00;;;;;;6250112;28;20049;-76
2021/07/23 14:48:29;;;;;;;8.23;7.30;;;33.50;39.50;;;;;;6248239;28;20140;-76
2021/07/23 14:51:31;;;;;;;11.85;7.25;;;33.40;39.90;;;;;;6242196;28;20075;-76
2021/07/23 14:54:33;;;;;;;8.15;7.05;;;33.50;40.00;;;;;;6248223;28;20041;-77
2021/07/23 14:57:36;;;;;;;9.93;8.93;;;33.60;40.10;;;;;;6248031;28;20134;-76
2021/07/23 15:00:38;;;;;;;21.08;8.02;;;33.60;39.50;;;;;;6248267;28;20418;-76
2021/07/23 15:03:41;;;;;;;11.23;7.72;;;33.70;40.00;;;;;;6248043;28;20099;-77
2021/07/23 15:06:43;;;;;;;8.38;7.57;;;33.70;39.30;;;;;;6247664;28;20045;-77
2021/07/23 15:09:47;;;;;;;12.43;7.25;;;33.50;40.00;;;;;;6248211;28;20072;-76
2021/07/23 15:12:51;;;;;;;8.35;6.25;;;33.60;39.80;;;;;;6247897;28;20578;-76
2021/07/23 15:15:52;;;;;;;8.52;7.43;;;33.50;40.20;;;;;;6247138;28;20053;-76
2021/07/23 15:18:54;;;;;;;11.70;8.10;;;33.50;39.90;;;;;;6248043;28;20065;-76
2021/07/23 15:21:58;;;;;;;7.93;7.05;;;33.50;39.60;;;;;;6248039;28;20045;-76
2021/07/23 15:25:00;;;;;;;8.68;7.00;;;33.40;39.70;;;;;;6247518;28;20048;-76
2021/07/23 15:28:03;;;;;;;10.90;7.65;;;33.30;39.50;;;;;;6247217;28;20103;-76
2021/07/23 15:31:05;;;;;;;9.90;6.95;;;33.30;40.20;;;;;;6247565;28;20037;-76
2021/07/23 15:34:08;;;;;;;17.25;7.68;;;33.20;39.80;;;;;;6247867;28;20136;-76
2021/07/23 15:37:10;;;;;;;12.68;8.35;;;33.20;40.20;;;;;;6246691;28;20049;-76
2021/07/23 15:40:13;;;;;;;14.07;7.15;;;33.10;40.00;;;;;;6248115;28;20515;-77
2021/07/23 15:43:16;;;;;;;9.95;8.30;;;33.00;40.50;;;;;;6248055;28;20136;-77
2021/07/23 15:46:18;;;;;;;9.48;8.18;;;33.20;40.90;;;;;;6247890;28;20129;-76